Time;durP1;ratioP1;P1;durP2;ratioP2;P2;SDS_P1;SDS_P2;PMS_P1;PMS_P2;Temp;Humidity;BMP_temperature;BMP_pressure;BME280_temperature;BME280_humidity;BME280_pressure;Samples;Min_cycle;Max_cycle;Signal;HPM_P1;HPM_P2
2023/10/15 00:01:46;;;;;;;7.05;5.82;;;;;;;;;;4993945;28;20161;-68
2023/10/15 00:04:12;;;;;;;8.55;6.45;;;;;;;;;;4993969;28;20022;-68
2023/10/15 00:06:40;;;;;;;6.72;6.03;;;;;;;;;;4994082;28;20054;-68
2023/10/15 00:09:06;;;;;;;10.77;6.35;;;;;;;;;;4993899;28;20030;-69
2023/10/15 00:11:32;;;;;;;7.10;6.28;;;;;;;;;;4993835;28;20269;-68
2023/10/15 00:13:58;;;;;;;7.57;6.00;;;;;;;;;;4993613;28;20320;-68
2023/10/15 00:16:24;;;;;;;6.25;5.63;;;;;;;;;;4994130;28;20088;-69
2023/10/15 00:18:50;;;;;;;6.88;6.03;;;;;;;;;;4993535;28;20054;-68
2023/10/15 00:21:15;;;;;;;7.55;6.28;;;;;;;;;;4993879;28;20057;-68
2023/10/15 00:23:43;;;;;;;6.60;5.90;;;;;;;;;;4994594;28;20451;-68
2023/10/15 00:26:12;;;;;;;6.82;6.03;;;;;;;;;;4993462;28;20027;-68
2023/10/15 00:28:38;;;;;;;6.50;5.63;;;;;;;;;;4993490;28;20029;-69
2023/10/15 00:31:13;;;;;;;6.55;5.43;;;;;;;;;;4993430;28;20018;-68
2023/10/15 00:33:48;;;;;;;7.00;6.30;;;;;;;;;;4993391;28;20046;-69
2023/10/15 00:36:14;;;;;;;6.78;6.03;;;;;;;;;;4993700;28;20117;-69
2023/10/15 00:38:43;;;;;;;9.57;6.53;;;;;;;;;;4993340;28;20382;-69
2023/10/15 00:41:16;;;;;;;8.32;5.85;;;;;;;;;;4993248;28;20022;-68
2023/10/15 00:43:52;;;;;;;7.18;5.90;;;;;;;;;;4993185;28;20049;-69
2023/10/15 00:46:18;;;;;;;7.18;5.80;;;;;;;;;;4993250;28;20054;-69
2023/10/15 00:48:45;;;;;;;6.35;5.63;;;;;;;;;;4992795;28;20105;-69
2023/10/15 00:51:11;;;;;;;7.15;6.00;;;;;;;;;;4993131;28;20041;-69
2023/10/15 00:53:54;;;;;;;7.10;5.90;;;;;;;;;;4993182;28;20023;-69
2023/10/15 00:56:25;;;;;;;7.25;5.95;;;;;;;;;;4993161;28;20029;-70
2023/10/15 08:10:39;;;;;;;3.40;3.10;;;;;;;;;;5279703;23;19968;-69
2023/10/15 08:13:09;;;;;;;3.13;2.88;;;;;;;;;;4974304;28;20062;-69
2023/10/15 08:15:35;;;;;;;3.28;2.92;;;;;;;;;;4978934;28;20139;-69
2023/10/15 08:18:02;;;;;;;3.35;3.05;;;;;;;;;;4982425;28;20056;-69
2023/10/15 08:20:31;;;;;;;4.47;3.30;;;;;;;;;;4983956;28;20381;-70
2023/10/15 08:22:57;;;;;;;3.40;3.10;;;;;;;;;;4984347;28;20023;-71
2023/10/15 08:25:22;;;;;;;3.67;3.20;;;;;;;;;;4984344;28;20053;-70
2023/10/15 08:27:48;;;;;;;3.47;2.80;;;;;;;;;;4982424;28;20471;-69
2023/10/15 08:30:15;;;;;;;3.92;3.22;;;;;;;;;;4983387;28;20049;-77
2023/10/15 08:32:44;;;;;;;3.00;2.78;;;;;;;;;;4983955;28;20123;-74
2023/10/15 08:35:10;;;;;;;4.28;2.80;;;;;;;;;;4980392;28;20173;-77
2023/10/15 08:37:36;;;;;;;3.00;2.80;;;;;;;;;;4985272;28;20589;-70
2023/10/15 08:40:06;;;;;;;3.22;2.92;;;;;;;;;;4982890;28;20038;-77
2023/10/15 08:42:42;;;;;;;3.20;2.90;;;;;;;;;;4980780;28;20478;-69
2023/10/15 08:45:08;;;;;;;2.55;2.35;;;;;;;;;;4981777;28;20042;-70
2023/10/15 08:47:35;;;;;;;3.40;2.95;;;;;;;;;;4973804;28;20030;-69
2023/10/15 08:50:01;;;;;;;3.72;2.85;;;;;;;;;;4973814;28;20030;-79
2023/10/15 08:52:27;;;;;;;3.50;2.97;;;;;;;;;;4977037;28;20500;-70
2023/10/15 08:54:56;;;;;;;3.47;3.15;;;;;;;;;;4979524;28;20042;-69
2023/10/15 08:57:22;;;;;;;3.30;2.85;;;;;;;;;;4980553;28;20042;-70
2023/10/15 08:59:50;;;;;;;2.90;2.53;;;;;;;;;;4973772;28;20023;-70
2023/10/15 09:02:18;;;;;;;2.72;2.53;;;;;;;;;;4973610;28;20038;-70
2023/10/15 09:04:45;;;;;;;3.20;2.70;;;;;;;;;;4973915;28;20101;-70
2023/10/15 09:07:14;;;;;;;3.13;2.80;;;;;;;;;;4973656;28;20368;-70
2023/10/15 09:09:40;;;;;;;3.20;2.80;;;;;;;;;;4973463;28;20043;-69
2023/10/15 09:12:06;;;;;;;3.72;3.22;;;;;;;;;;4973879;28;20031;-70
2023/10/15 09:14:45;;;;;;;2.67;2.47;;;;;;;;;;4973777;28;20474;-70
2023/10/15 09:17:15;;;;;;;2.80;2.60;;;;;;;;;;4973967;28;20027;-70
2023/10/15 09:19:48;;;;;;;2.75;2.55;;;;;;;;;;4973654;28;20124;-70
2023/10/15 09:22:16;;;;;;;2.88;2.60;;;;;;;;;;4973521;28;20035;-70
2023/10/15 09:24:45;;;;;;;2.70;2.50;;;;;;;;;;4973755;28;20033;-70
2023/10/15 09:27:13;;;;;;;3.33;2.60;;;;;;;;;;4973461;28;20058;-70
2023/10/15 09:29:38;;;;;;;2.97;2.65;;;;;;;;;;4973410;28;20027;-69
2023/10/15 09:32:05;;;;;;;3.03;2.75;;;;;;;;;;4973533;28;20034;-70
2023/10/15 09:34:38;;;;;;;3.55;2.80;;;;;;;;;;4973782;28;20121;-70
2023/10/15 09:37:07;;;;;;;3.10;2.80;;;;;;;;;;4973719;28;20042;-71
2023/10/15 09:39:38;;;;;;;2.85;2.63;;;;;;;;;;4973389;28;20034;-71
2023/10/15 09:42:04;;;;;;;3.85;2.65;;;;;;;;;;4973437;28;20031;-71
2023/10/15 09:44:32;;;;;;;3.95;2.80;;;;;;;;;;4974917;28;20518;-71
2023/10/15 09:46:58;;;;;;;2.80;2.50;;;;;;;;;;4977053;28;20038;-69
2023/10/15 09:49:25;;;;;;;2.92;2.63;;;;;;;;;;4977096;28;20534;-69
2023/10/15 09:51:51;;;;;;;3.05;2.65;;;;;;;;;;4976974;28;20054;-70
2023/10/15 09:54:19;;;;;;;2.78;2.47;;;;;;;;;;4976997;28;20023;-70
2023/10/15 09:56:47;;;;;;;2.67;2.40;;;;;;;;;;4976905;28;20048;-69
2023/10/15 09:59:14;;;;;;;3.05;2.25;;;;;;;;;;4976893;28;20045;-69
2023/10/15 10:01:53;;;;;;;3.10;2.70;;;;;;;;;;4976869;28;20019;-69
2023/10/15 10:05:14;;;;;;;2.63;2.42;;;;;;;;;;4976799;28;20083;-69
2023/10/15 10:07:39;;;;;;;2.70;2.50;;;;;;;;;;4898129;29;20115;-69
2023/10/15 10:10:27;;;;;;;2.65;2.38;;;;;;;;;;4897962;29;20176;-69
2023/10/15 10:13:29;;;;;;;2.50;2.20;;;;;;;;;;4950111;28;20038;-69
2023/10/15 10:15:58;;;;;;;3.13;2.38;;;;;;;;;;4976588;28;20027;-69
2023/10/15 10:18:33;;;;;;;2.40;2.20;;;;;;;;;;4976758;28;20034;-69
2023/10/15 10:21:08;;;;;;;2.60;2.40;;;;;;;;;;4976515;28;20023;-69
2023/10/15 10:23:33;;;;;;;3.15;2.50;;;;;;;;;;4976641;28;20375;-70
2023/10/15 10:26:09;;;;;;;2.55;2.35;;;;;;;;;;4976431;28;20050;-69
2023/10/15 10:28:36;;;;;;;2.65;2.45;;;;;;;;;;4959032;28;20025;-69
2023/10/15 10:31:01;;;;;;;2.72;2.50;;;;;;;;;;4976383;28;20022;-69
2023/10/15 10:33:45;;;;;;;3.95;2.60;;;;;;;;;;4976226;28;20034;-69
2023/10/15 10:36:12;;;;;;;3.20;2.60;;;;;;;;;;4976264;28;20037;-70
2023/10/15 10:38:39;;;;;;;3.10;2.42;;;;;;;;;;4976266;28;20472;-69
2023/10/15 10:41:07;;;;;;;2.65;2.28;;;;;;;;;;4976019;28;20035;-69
2023/10/15 10:43:33;;;;;;;2.83;2.50;;;;;;;;;;4976033;28;20026;-70
2023/10/15 10:46:01;;;;;;;3.30;2.40;;;;;;;;;;4975961;28;20022;-70
2023/10/15 10:48:29;;;;;;;2.50;2.30;;;;;;;;;;4976275;28;20418;-70
2023/10/15 10:51:11;;;;;;;3.42;2.38;;;;;;;;;;4975901;28;20138;-70
2023/10/15 10:53:59;;;;;;;2.78;2.58;;;;;;;;;;4975931;28;20023;-70
2023/10/15 10:56:38;;;;;;;3.25;2.40;;;;;;;;;;4974804;28;20050;-70
2023/10/15 10:59:06;;;;;;;3.47;2.55;;;;;;;;;;4975836;28;20027;-70
2023/10/15 11:01:37;;;;;;;2.63;2.38;;;;;;;;;;4975760;28;20026;-70
2023/10/15 11:04:04;;;;;;;3.13;2.83;;;;;;;;;;4975896;28;20478;-70
2023/10/15 11:06:29;;;;;;;3.05;2.50;;;;;;;;;;4975685;28;20023;-70
2023/10/15 11:08:55;;;;;;;2.42;2.22;;;;;;;;;;4975560;28;20069;-70
2023/10/15 11:11:21;;;;;;;2.63;2.28;;;;;;;;;;4972153;28;20035;-70
2023/10/15 11:13:49;;;;;;;2.38;2.15;;;;;;;;;;4961036;28;20499;-69
2023/10/15 11:16:18;;;;;;;2.88;2.58;;;;;;;;;;4960285;28;20033;-76
2023/10/15 11:18:46;;;;;;;4.00;2.60;;;;;;;;;;4958117;28;20506;-70
2023/10/15 11:21:11;;;;;;;3.13;2.35;;;;;;;;;;4964675;28;20066;-69
2023/10/15 11:23:41;;;;;;;2.53;2.33;;;;;;;;;;4966877;28;20038;-76
2023/10/15 11:26:08;;;;;;;3.97;2.45;;;;;;;;;;4968702;28;20518;-70
2023/10/15 11:28:34;;;;;;;2.50;2.30;;;;;;;;;;4967066;28;20034;-69
2023/10/15 11:31:02;;;;;;;2.33;2.13;;;;;;;;;;4969186;28;20489;-69
2023/10/15 11:33:28;;;;;;;2.88;2.28;;;;;;;;;;4967137;28;20118;-71
2023/10/15 11:35:55;;;;;;;2.38;2.17;;;;;;;;;;4978084;28;20054;-71
2023/10/15 11:38:21;;;;;;;3.05;2.22;;;;;;;;;;4975297;28;20472;-82
2023/10/15 11:40:46;;;;;;;2.58;2.38;;;;;;;;;;4980333;28;20034;-70
2023/10/15 11:43:19;;;;;;;2.40;2.30;;;;;;;;;;4961967;28;20050;-70
2023/10/15 11:45:47;;;;;;;2.85;2.55;;;;;;;;;;4964742;28;20027;-70
2023/10/15 11:48:14;;;;;;;2.53;2.20;;;;;;;;;;4963726;28;20039;-70
2023/10/15 11:50:41;;;;;;;2.60;2.40;;;;;;;;;;4963876;28;20019;-72
2023/10/15 11:53:23;;;;;;;2.25;2.05;;;;;;;;;;4964323;28;20028;-71
2023/10/15 11:55:53;;;;;;;3.03;2.25;;;;;;;;;;4968093;28;20027;-71
2023/10/15 11:58:27;;;;;;;3.05;2.33;;;;;;;;;;4974718;28;20022;-71
2023/10/15 12:00:52;;;;;;;4.00;2.70;;;;;;;;;;4974674;28;20026;-71
2023/10/15 12:03:21;;;;;;;2.50;2.30;;;;;;;;;;4974522;28;20085;-71
2023/10/15 12:05:49;;;;;;;2.15;1.95;;;;;;;;;;4974557;28;20097;-71
2023/10/15 12:08:16;;;;;;;3.30;2.58;;;;;;;;;;4974337;28;20019;-70
2023/10/15 12:10:45;;;;;;;2.63;2.13;;;;;;;;;;4974849;28;20077;-70
2023/10/15 12:13:14;;;;;;;2.25;2.03;;;;;;;;;;4974735;28;20046;-69
2023/10/15 12:15:40;;;;;;;3.28;2.30;;;;;;;;;;4974678;28;20027;-70
2023/10/15 12:18:06;;;;;;;2.40;2.20;;;;;;;;;;4957198;28;20102;-70
2023/10/15 12:20:32;;;;;;;2.88;2.25;;;;;;;;;;4957023;28;20574;-70
2023/10/15 12:22:57;;;;;;;2.97;2.20;;;;;;;;;;4974102;28;20495;-70
2023/10/15 12:25:23;;;;;;;2.53;2.00;;;;;;;;;;4974191;28;20058;-71
2023/10/15 12:27:48;;;;;;;4.18;2.22;;;;;;;;;;4974104;28;20090;-70
2023/10/15 12:30:23;;;;;;;2.47;2.28;;;;;;;;;;4974089;28;20055;-70
2023/10/15 12:32:53;;;;;;;2.20;2.00;;;;;;;;;;4956739;28;20482;-71
2023/10/15 12:35:19;;;;;;;2.42;2.20;;;;;;;;;;4974140;28;20101;-73
2023/10/15 12:37:46;;;;;;;3.28;2.30;;;;;;;;;;4974230;28;20101;-73
2023/10/15 12:40:21;;;;;;;5.63;2.10;;;;;;;;;;4975191;28;20026;-77
2023/10/15 12:42:47;;;;;;;4.28;1.90;;;;;;;;;;4977868;28;20113;-76
2023/10/15 12:45:13;;;;;;;2.35;1.80;;;;;;;;;;4976292;28;20117;-75
2023/10/15 12:47:39;;;;;;;4.18;2.13;;;;;;;;;;4975841;28;20026;-73
2023/10/15 12:50:14;;;;;;;3.00;1.92;;;;;;;;;;4974973;28;20504;-74
2023/10/15 12:52:41;;;;;;;3.90;1.92;;;;;;;;;;4969017;28;20033;-68
2023/10/15 12:55:07;;;;;;;3.15;2.08;;;;;;;;;;4962302;28;20039;-68
2023/10/15 12:57:32;;;;;;;3.38;1.92;;;;;;;;;;4961870;28;20030;-69
2023/10/15 13:00:00;;;;;;;2.05;1.70;;;;;;;;;;4963125;28;20118;-69
2023/10/15 13:02:25;;;;;;;3.15;1.58;;;;;;;;;;4962752;28;20094;-69
2023/10/15 13:04:51;;;;;;;6.10;2.08;;;;;;;;;;4962107;28;20030;-69
2023/10/15 13:07:18;;;;;;;2.92;1.63;;;;;;;;;;4964659;28;20019;-69
2023/10/15 13:09:44;;;;;;;6.00;1.90;;;;;;;;;;4970204;28;20716;-71
2023/10/15 13:12:10;;;;;;;4.85;1.70;;;;;;;;;;4956408;28;20118;-70
2023/10/15 13:14:36;;;;;;;2.80;1.70;;;;;;;;;;4973296;28;20037;-69
2023/10/15 13:17:02;;;;;;;3.72;1.80;;;;;;;;;;4971415;28;20395;-70
2023/10/15 13:19:28;;;;;;;4.10;1.70;;;;;;;;;;4973090;28;20452;-70
2023/10/15 13:21:53;;;;;;;3.63;1.83;;;;;;;;;;4975645;28;20023;-70
2023/10/15 13:24:19;;;;;;;4.22;1.95;;;;;;;;;;4975861;28;20027;-69
2023/10/15 13:26:47;;;;;;;5.65;1.80;;;;;;;;;;4976155;28;20085;-69
2023/10/15 13:29:14;;;;;;;2.42;1.67;;;;;;;;;;4976670;28;20431;-69
2023/10/15 13:31:39;;;;;;;2.15;1.58;;;;;;;;;;4977102;28;20030;-69
2023/10/15 13:34:05;;;;;;;3.65;1.65;;;;;;;;;;4977522;28;20030;-71
2023/10/15 13:36:32;;;;;;;2.03;1.70;;;;;;;;;;4977544;28;20023;-70
2023/10/15 13:38:59;;;;;;;2.60;1.50;;;;;;;;;;4977323;28;20026;-70
2023/10/15 13:41:25;;;;;;;4.53;1.80;;;;;;;;;;4977178;28;20054;-70
2023/10/15 13:43:51;;;;;;;2.70;1.50;;;;;;;;;;4977047;28;20070;-69
2023/10/15 13:46:16;;;;;;;2.00;1.48;;;;;;;;;;4977178;28;20077;-70
2023/10/15 13:48:42;;;;;;;1.92;1.77;;;;;;;;;;4977171;28;20029;-70
2023/10/15 13:51:07;;;;;;;2.90;1.50;;;;;;;;;;4977012;28;20027;-70
2023/10/15 13:53:35;;;;;;;2.40;1.60;;;;;;;;;;4976735;28;20035;-70
2023/10/15 13:56:04;;;;;;;1.95;1.50;;;;;;;;;;4976426;28;20030;-70
2023/10/15 13:58:30;;;;;;;2.45;1.65;;;;;;;;;;4976368;28;20034;-70
2023/10/15 14:00:55;;;;;;;3.75;1.75;;;;;;;;;;4976902;28;20015;-70
2023/10/15 14:03:21;;;;;;;2.75;1.58;;;;;;;;;;4976756;28;20034;-70
2023/10/15 14:05:46;;;;;;;1.95;1.50;;;;;;;;;;4976799;28;20023;-70
2023/10/15 14:08:13;;;;;;;3.00;1.30;;;;;;;;;;4976755;28;20055;-70
2023/10/15 14:10:39;;;;;;;3.00;1.50;;;;;;;;;;4976547;28;20046;-69
2023/10/15 14:13:07;;;;;;;2.92;1.67;;;;;;;;;;4976638;28;20385;-70
2023/10/15 14:15:33;;;;;;;3.70;1.58;;;;;;;;;;4976855;28;20039;-70
2023/10/15 14:17:59;;;;;;;2.72;1.58;;;;;;;;;;4976618;28;20395;-70
2023/10/15 14:20:25;;;;;;;1.90;1.38;;;;;;;;;;4976517;28;20102;-69
2023/10/15 14:22:54;;;;;;;2.40;1.63;;;;;;;;;;4976395;28;20027;-70
2023/10/15 14:25:20;;;;;;;6.70;1.90;;;;;;;;;;4976359;28;20038;-70
2023/10/15 14:27:45;;;;;;;2.30;1.70;;;;;;;;;;4976302;28;20034;-70
2023/10/15 14:30:11;;;;;;;2.15;1.48;;;;;;;;;;4976220;28;20026;-70
2023/10/15 14:32:37;;;;;;;2.20;1.65;;;;;;;;;;4976605;28;20053;-70
2023/10/15 14:35:04;;;;;;;1.67;1.55;;;;;;;;;;4976497;28;20475;-70
2023/10/15 14:37:31;;;;;;;1.85;1.50;;;;;;;;;;4976158;28;20033;-70
2023/10/15 14:39:57;;;;;;;1.75;1.40;;;;;;;;;;4976700;28;20034;-70
2023/10/15 14:42:23;;;;;;;2.70;1.50;;;;;;;;;;4976107;28;20018;-70
2023/10/15 14:44:50;;;;;;;2.55;1.70;;;;;;;;;;4976029;28;20039;-70
2023/10/15 14:47:17;;;;;;;2.33;1.30;;;;;;;;;;4975986;28;20027;-70
2023/10/15 14:49:43;;;;;;;1.65;1.42;;;;;;;;;;4976051;28;20475;-69
2023/10/15 14:52:09;;;;;;;1.35;1.25;;;;;;;;;;4975968;28;20027;-70
2023/10/15 14:54:35;;;;;;;2.67;1.60;;;;;;;;;;4975912;28;20023;-70
2023/10/15 14:57:00;;;;;;;2.95;1.58;;;;;;;;;;4975863;28;20033;-69
2023/10/15 14:59:26;;;;;;;3.78;1.67;;;;;;;;;;4975775;28;20395;-69
2023/10/15 15:01:52;;;;;;;2.22;1.40;;;;;;;;;;4975772;28;20030;-70
2023/10/15 15:04:27;;;;;;;2.17;1.70;;;;;;;;;;4975576;28;20030;-70
2023/10/15 15:06:54;;;;;;;3.70;1.70;;;;;;;;;;4975769;28;20027;-69
2023/10/15 15:09:19;;;;;;;2.63;1.50;;;;;;;;;;4975701;28;20121;-70
2023/10/15 15:11:45;;;;;;;1.75;1.65;;;;;;;;;;4958278;28;20489;-70
2023/10/15 15:14:13;;;;;;;1.65;1.55;;;;;;;;;;4975535;28;20038;-70
2023/10/15 15:16:39;;;;;;;3.38;1.67;;;;;;;;;;4975524;28;20047;-70
2023/10/15 15:19:05;;;;;;;1.40;1.30;;;;;;;;;;4975459;28;20027;-69
2023/10/15 15:21:31;;;;;;;1.83;1.50;;;;;;;;;;4975206;28;20019;-68
2023/10/15 15:23:56;;;;;;;6.88;1.67;;;;;;;;;;4972293;28;20030;-69
2023/10/15 15:26:22;;;;;;;2.35;1.80;;;;;;;;;;4970573;28;20476;-70
2023/10/15 15:28:50;;;;;;;2.35;1.40;;;;;;;;;;4974511;28;20026;-70
2023/10/15 15:31:16;;;;;;;3.05;1.40;;;;;;;;;;4974173;28;20432;-69
2023/10/15 15:33:42;;;;;;;3.05;1.52;;;;;;;;;;4974465;28;20061;-70
2023/10/15 15:36:07;;;;;;;3.03;1.52;;;;;;;;;;4988218;28;20022;-69
2023/10/15 15:38:33;;;;;;;1.52;1.42;;;;;;;;;;4994050;28;20367;-69
2023/10/15 15:41:07;;;;;;;2.67;1.60;;;;;;;;;;4994222;28;20030;-69
2023/10/15 15:43:33;;;;;;;2.22;1.50;;;;;;;;;;4976707;28;20023;-70
2023/10/15 15:46:00;;;;;;;2.15;1.42;;;;;;;;;;4994499;28;20438;-69
2023/10/15 15:48:26;;;;;;;3.22;1.40;;;;;;;;;;4994150;28;20046;-69
2023/10/15 15:50:52;;;;;;;2.28;1.40;;;;;;;;;;4994250;28;20459;-69
2023/10/15 15:53:18;;;;;;;1.88;1.23;;;;;;;;;;4994341;28;20430;-69
2023/10/15 15:55:44;;;;;;;3.78;1.30;;;;;;;;;;4994055;28;20062;-69
2023/10/15 15:58:10;;;;;;;2.40;1.40;;;;;;;;;;4994104;28;20483;-69
2023/10/15 16:00:36;;;;;;;3.10;1.65;;;;;;;;;;4993887;28;20037;-69
2023/10/15 16:03:03;;;;;;;4.25;1.92;;;;;;;;;;4994170;28;20034;-69
2023/10/15 16:05:29;;;;;;;9.18;2.08;;;;;;;;;;4993839;28;20066;-69
2023/10/15 16:07:58;;;;;;;5.32;2.00;;;;;;;;;;4993805;28;20030;-69
2023/10/15 16:10:25;;;;;;;4.75;2.03;;;;;;;;;;4993590;28;20046;-69
2023/10/15 16:12:53;;;;;;;10.45;2.67;;;;;;;;;;4993756;28;20030;-69
2023/10/15 16:15:19;;;;;;;5.30;2.20;;;;;;;;;;4993628;28;20077;-69
2023/10/15 16:17:45;;;;;;;3.55;1.98;;;;;;;;;;4993917;28;20038;-69
2023/10/15 16:20:11;;;;;;;7.60;3.35;;;;;;;;;;4993869;28;20034;-69
2023/10/15 16:22:38;;;;;;;9.35;2.65;;;;;;;;;;4993214;28;20554;-70
2023/10/15 16:25:06;;;;;;;9.77;3.70;;;;;;;;;;4993143;28;20049;-69
2023/10/15 16:27:32;;;;;;;8.18;3.15;;;;;;;;;;4993578;28;20030;-69
2023/10/15 16:29:58;;;;;;;6.45;2.92;;;;;;;;;;4993433;28;20015;-69
2023/10/15 16:32:24;;;;;;;6.40;2.50;;;;;;;;;;4993405;28;20045;-70
2023/10/15 16:34:49;;;;;;;5.20;1.90;;;;;;;;;;4993602;28;20018;-69
2023/10/15 16:37:15;;;;;;;10.27;3.40;;;;;;;;;;4993597;28;20034;-69
2023/10/15 16:39:40;;;;;;;11.65;4.13;;;;;;;;;;4993365;28;20467;-69
2023/10/15 16:42:06;;;;;;;9.25;3.20;;;;;;;;;;4993334;28;20478;-68
2023/10/15 16:44:32;;;;;;;7.80;3.33;;;;;;;;;;4992854;28;20124;-69
2023/10/15 16:46:58;;;;;;;13.65;3.83;;;;;;;;;;4993261;28;20602;-69
2023/10/15 16:49:23;;;;;;;7.03;3.05;;;;;;;;;;4993165;28;20023;-69
2023/10/15 16:51:49;;;;;;;7.28;2.80;;;;;;;;;;4993137;28;20448;-68
2023/10/15 16:54:15;;;;;;;7.10;2.50;;;;;;;;;;4992237;28;20494;-68
2023/10/15 16:56:41;;;;;;;11.02;3.47;;;;;;;;;;4992932;28;20050;-69
2023/10/15 16:59:06;;;;;;;8.38;2.83;;;;;;;;;;4993015;28;20073;-68
2023/10/15 17:01:32;;;;;;;9.10;2.50;;;;;;;;;;4993065;28;20029;-68
2023/10/15 17:03:58;;;;;;;12.35;3.63;;;;;;;;;;4992904;28;20019;-68
2023/10/15 17:06:24;;;;;;;10.95;3.35;;;;;;;;;;4993202;28;20391;-69
2023/10/15 17:08:50;;;;;;;9.68;3.00;;;;;;;;;;4992979;28;20026;-69
2023/10/15 17:11:16;;;;;;;9.50;3.20;;;;;;;;;;4992743;28;20046;-70
2023/10/15 17:13:41;;;;;;;12.45;3.20;;;;;;;;;;4992908;28;20026;-69
2023/10/15 17:16:07;;;;;;;9.60;3.13;;;;;;;;;;4992871;28;20037;-69
2023/10/15 17:18:33;;;;;;;9.00;3.22;;;;;;;;;;4992994;28;20038;-70
2023/10/15 17:20:59;;;;;;;8.82;3.25;;;;;;;;;;4993131;28;20027;-69
2023/10/15 17:23:25;;;;;;;4.72;2.53;;;;;;;;;;4993145;28;20030;-76
2023/10/15 17:25:51;;;;;;;10.15;2.95;;;;;;;;;;4992739;28;20101;-69
2023/10/15 17:28:17;;;;;;;11.18;2.88;;;;;;;;;;4992829;28;20466;-69
2023/10/15 17:30:43;;;;;;;9.05;2.85;;;;;;;;;;4994310;28;20030;-69
2023/10/15 17:33:11;;;;;;;11.48;2.65;;;;;;;;;;4994472;28;20042;-70
2023/10/15 17:35:37;;;;;;;7.53;2.75;;;;;;;;;;4993284;28;20431;-69
2023/10/15 17:38:04;;;;;;;6.10;2.65;;;;;;;;;;4992779;28;20459;-69
2023/10/15 17:40:31;;;;;;;11.57;2.53;;;;;;;;;;4993862;28;20113;-70
2023/10/15 17:42:57;;;;;;;10.13;2.95;;;;;;;;;;4992373;28;20026;-69
2023/10/15 17:45:25;;;;;;;7.03;2.38;;;;;;;;;;4992562;28;20089;-69
2023/10/15 17:47:56;;;;;;;4.95;2.30;;;;;;;;;;4992652;28;20022;-69
2023/10/15 17:50:21;;;;;;;15.48;3.40;;;;;;;;;;4992276;28;20030;-69
2023/10/15 17:52:47;;;;;;;6.95;2.60;;;;;;;;;;4992707;28;20033;-69
2023/10/15 17:55:13;;;;;;;9.25;3.63;;;;;;;;;;4992734;28;20042;-69
2023/10/15 17:57:38;;;;;;;11.65;3.97;;;;;;;;;;4992899;28;20026;-68
2023/10/15 18:00:05;;;;;;;12.98;4.10;;;;;;;;;;4992937;28;20049;-69
2023/10/15 18:02:30;;;;;;;10.93;3.85;;;;;;;;;;4992379;28;20081;-67
2023/10/15 18:04:56;;;;;;;9.68;3.85;;;;;;;;;;4975857;28;20034;-72
2023/10/15 18:07:21;;;;;;;11.63;3.80;;;;;;;;;;4996319;28;20022;-70
2023/10/15 18:09:47;;;;;;;9.88;3.55;;;;;;;;;;4996060;28;20486;-75
2023/10/15 18:12:13;;;;;;;10.65;3.38;;;;;;;;;;4996095;28;20073;-69
2023/10/15 18:14:40;;;;;;;10.75;3.20;;;;;;;;;;4995880;28;20022;-70
2023/10/15 18:17:05;;;;;;;10.48;3.35;;;;;;;;;;4995953;28;20057;-69
2023/10/15 18:19:31;;;;;;;8.45;3.40;;;;;;;;;;4995835;28;20050;-69
2023/10/15 18:21:57;;;;;;;10.82;3.78;;;;;;;;;;4985532;28;20037;-74
2023/10/15 18:24:22;;;;;;;15.13;3.92;;;;;;;;;;4991848;28;20042;-74
2023/10/15 18:26:48;;;;;;;10.20;3.60;;;;;;;;;;4996020;28;20030;-71
2023/10/15 18:29:14;;;;;;;5.88;3.25;;;;;;;;;;4992588;28;20126;-71
2023/10/15 18:31:40;;;;;;;10.63;3.50;;;;;;;;;;4985146;28;20026;-71
2023/10/15 18:34:06;;;;;;;10.02;3.78;;;;;;;;;;4986251;28;20097;-71
2023/10/15 18:36:35;;;;;;;5.93;3.47;;;;;;;;;;4984394;28;20030;-71
2023/10/15 18:39:04;;;;;;;10.43;3.90;;;;;;;;;;4984956;28;20022;-71
2023/10/15 18:41:30;;;;;;;7.88;4.00;;;;;;;;;;4983653;28;20023;-71
2023/10/15 18:43:57;;;;;;;8.63;3.88;;;;;;;;;;4976073;28;20033;-76
2023/10/15 18:46:23;;;;;;;6.95;4.00;;;;;;;;;;4986089;28;20361;-73
2023/10/15 18:48:49;;;;;;;10.27;3.90;;;;;;;;;;4984360;28;20504;-75
2023/10/15 18:51:16;;;;;;;8.13;3.67;;;;;;;;;;4978104;28;20146;-73
2023/10/15 18:53:43;;;;;;;9.95;4.20;;;;;;;;;;4975614;28;20034;-70
2023/10/15 18:56:08;;;;;;;8.82;4.00;;;;;;;;;;4976063;28;20038;-71
2023/10/15 18:58:34;;;;;;;10.30;4.65;;;;;;;;;;4981491;28;20042;-75
2023/10/15 19:01:00;;;;;;;9.02;3.90;;;;;;;;;;4995064;28;20026;-69
2023/10/15 19:03:27;;;;;;;8.48;3.80;;;;;;;;;;4994907;28;20050;-69
2023/10/15 19:05:52;;;;;;;10.85;4.10;;;;;;;;;;4994898;28;20022;-69
2023/10/15 19:08:18;;;;;;;11.23;4.80;;;;;;;;;;4977438;28;20041;-69
2023/10/15 19:10:43;;;;;;;13.65;4.30;;;;;;;;;;4987154;28;20050;-70
2023/10/15 19:13:09;;;;;;;6.90;3.78;;;;;;;;;;4958169;28;20174;-69
2023/10/15 19:15:39;;;;;;;9.15;4.40;;;;;;;;;;4975453;28;20388;-69
2023/10/15 19:18:05;;;;;;;12.30;4.30;;;;;;;;;;4974409;28;20487;-70
2023/10/15 19:20:36;;;;;;;9.68;4.45;;;;;;;;;;4975383;28;20040;-70
2023/10/15 19:23:02;;;;;;;10.00;4.50;;;;;;;;;;4975329;28;20023;-69
2023/10/15 19:25:28;;;;;;;7.72;3.88;;;;;;;;;;4975119;28;20093;-69
2023/10/15 19:27:53;;;;;;;5.88;3.85;;;;;;;;;;4975224;28;20034;-69
2023/10/15 19:30:19;;;;;;;6.65;3.83;;;;;;;;;;4975162;28;20026;-69
2023/10/15 19:32:45;;;;;;;11.00;4.22;;;;;;;;;;4975051;28;20038;-69
2023/10/15 19:35:11;;;;;;;9.32;4.03;;;;;;;;;;4974946;28;20034;-69
2023/10/15 19:37:40;;;;;;;7.18;3.88;;;;;;;;;;4975267;28;20042;-69
2023/10/15 19:40:09;;;;;;;6.57;3.70;;;;;;;;;;4975175;28;20122;-69
2023/10/15 19:42:39;;;;;;;8.25;4.28;;;;;;;;;;4975082;28;20022;-70
2023/10/15 19:45:08;;;;;;;7.85;3.78;;;;;;;;;;4974799;28;20407;-70
2023/10/15 19:47:34;;;;;;;8.35;3.90;;;;;;;;;;4974834;28;20031;-70
2023/10/15 19:50:00;;;;;;;7.55;3.58;;;;;;;;;;4974835;28;20026;-70
2023/10/15 19:52:26;;;;;;;5.40;3.40;;;;;;;;;;4974654;28;20030;-69
2023/10/15 19:54:52;;;;;;;7.00;3.85;;;;;;;;;;4975142;28;20491;-76
2023/10/15 19:57:20;;;;;;;6.32;3.42;;;;;;;;;;4984065;28;20028;-69
2023/10/15 19:59:46;;;;;;;7.22;3.75;;;;;;;;;;4974545;28;20033;-70
2023/10/15 20:02:11;;;;;;;6.95;3.63;;;;;;;;;;4975507;28;20030;-67
2023/10/15 20:04:37;;;;;;;7.78;3.88;;;;;;;;;;4975081;28;20023;-68
2023/10/15 20:07:04;;;;;;;5.88;3.30;;;;;;;;;;4974786;28;20146;-67
2023/10/15 20:09:31;;;;;;;5.38;3.03;;;;;;;;;;4987628;28;20050;-67
2023/10/15 20:11:56;;;;;;;6.43;3.72;;;;;;;;;;4994097;28;20031;-68
2023/10/15 20:14:22;;;;;;;7.88;3.70;;;;;;;;;;4993843;28;20364;-68
2023/10/15 20:16:48;;;;;;;7.53;3.33;;;;;;;;;;4994916;28;20030;-68
2023/10/15 20:19:13;;;;;;;8.98;3.67;;;;;;;;;;4996035;28;20128;-68
2023/10/15 20:21:39;;;;;;;9.93;3.88;;;;;;;;;;4995477;28;20081;-68
2023/10/15 20:24:06;;;;;;;6.80;3.70;;;;;;;;;;4995418;28;20027;-68
2023/10/15 20:26:31;;;;;;;8.05;3.60;;;;;;;;;;4996331;28;20026;-68
2023/10/15 20:28:57;;;;;;;8.25;3.55;;;;;;;;;;4995386;28;20379;-68
2023/10/15 20:31:22;;;;;;;8.13;3.75;;;;;;;;;;4995749;28;20086;-68
2023/10/15 20:33:48;;;;;;;7.40;3.50;;;;;;;;;;4995128;28;20533;-76
2023/10/15 20:36:14;;;;;;;9.45;3.47;;;;;;;;;;4996908;28;20026;-73
2023/10/15 20:38:39;;;;;;;5.50;3.30;;;;;;;;;;4994472;28;20045;-72
2023/10/15 20:41:05;;;;;;;8.20;3.63;;;;;;;;;;4993963;28;20029;-68
2023/10/15 20:43:31;;;;;;;8.52;3.50;;;;;;;;;;4993420;28;20022;-68
2023/10/15 20:45:57;;;;;;;7.32;3.80;;;;;;;;;;4993390;28;20035;-66
2023/10/15 20:48:22;;;;;;;5.80;3.25;;;;;;;;;;4993773;28;20032;-68
2023/10/15 20:50:48;;;;;;;7.50;3.25;;;;;;;;;;4986858;28;20023;-70
2023/10/15 20:53:14;;;;;;;6.50;3.35;;;;;;;;;;4987771;28;20038;-74
2023/10/15 20:55:39;;;;;;;7.00;3.50;;;;;;;;;;4986975;28;20019;-68
2023/10/15 20:58:05;;;;;;;8.57;3.70;;;;;;;;;;4987046;28;20054;-68
2023/10/15 21:00:31;;;;;;;5.53;3.35;;;;;;;;;;4987739;28;20464;-74
2023/10/15 21:02:59;;;;;;;8.00;3.45;;;;;;;;;;4977810;28;20038;-67
2023/10/15 21:05:26;;;;;;;9.98;3.70;;;;;;;;;;4976451;28;20468;-69
2023/10/15 21:07:53;;;;;;;6.93;3.28;;;;;;;;;;4977635;28;20023;-68
2023/10/15 21:10:21;;;;;;;5.68;3.40;;;;;;;;;;4978022;28;20051;-67
2023/10/15 21:12:47;;;;;;;6.20;3.20;;;;;;;;;;4979527;28;20360;-74
2023/10/15 21:15:13;;;;;;;7.72;3.05;;;;;;;;;;4977015;28;20467;-72
2023/10/15 21:17:39;;;;;;;7.43;3.38;;;;;;;;;;4977209;28;20030;-72
2023/10/15 21:20:15;;;;;;;10.18;3.15;;;;;;;;;;4978343;28;20419;-76
2023/10/15 21:22:41;;;;;;;6.07;3.28;;;;;;;;;;4976089;28;20026;-68
2023/10/15 21:25:09;;;;;;;7.50;3.30;;;;;;;;;;4973742;28;20023;-67
2023/10/15 21:27:35;;;;;;;4.85;2.92;;;;;;;;;;4977641;28;20031;-68
2023/10/15 21:30:01;;;;;;;6.50;3.22;;;;;;;;;;4975739;28;20051;-68
2023/10/15 21:32:27;;;;;;;6.68;3.15;;;;;;;;;;4975250;28;20054;-76
2023/10/15 21:34:53;;;;;;;5.80;3.13;;;;;;;;;;4974996;28;20102;-69
2023/10/15 21:37:19;;;;;;;4.35;3.20;;;;;;;;;;4973576;28;20027;-68
2023/10/15 21:39:44;;;;;;;5.07;3.05;;;;;;;;;;4979595;28;20392;-72
2023/10/15 21:42:10;;;;;;;4.70;3.25;;;;;;;;;;4985954;28;20028;-68
2023/10/15 21:44:36;;;;;;;5.28;3.05;;;;;;;;;;4968704;28;20023;-68
2023/10/15 21:47:01;;;;;;;4.03;2.90;;;;;;;;;;4984598;28;20027;-67
2023/10/15 21:49:27;;;;;;;5.15;3.10;;;;;;;;;;4986115;28;20022;-68
2023/10/15 21:51:53;;;;;;;6.50;3.10;;;;;;;;;;4988686;28;20023;-71
2023/10/15 21:54:18;;;;;;;4.90;3.08;;;;;;;;;;4985391;28;20138;-71